Time;durP1;ratioP1;P1;durP2;ratioP2;P2;SDS_P1;SDS_P2;PMS_P1;PMS_P2;Temp;Humidity;BMP_temperature;BMP_pressure;BME280_temperature;BME280_humidity;BME280_pressure;Samples;Min_cycle;Max_cycle;Signal;HPM_P1;HPM_P2
2024/01/30 00:17:16;;;;;;;160.10;77.50;;;;;;;-3.81;100.00;100888.72;273812;1271;22359;-87
2024/01/30 00:31:40;;;;;;;182.90;86.40;;;;;;;-3.88;100.00;100892.75;272393;1275;22723;-86
2024/01/30 00:38:35;;;;;;;193.60;91.20;;;;;;;-3.93;100.00;100898.58;272444;1275;23526;-86
2024/01/30 00:53:20;;;;;;;196.60;100.20;;;;;;;-3.90;100.00;100891.35;271177;1281;22914;-85
2024/01/30 01:00:28;;;;;;;;;;;;;;;;;;;;;
2024/01/30 01:08:18;;;;;;;203.20;100.60;;;;;;;-4.00;100.00;100884.62;269365;1291;23815;-84
2024/01/30 01:14:41;;;;;;;179.10;84.80;;;;;;;-4.05;100.00;100883.05;270792;1283;22407;-84
2024/01/30 01:29:31;;;;;;;175.80;86.80;;;;;;;-4.13;100.00;100875.02;271828;1276;22502;-83
2024/01/30 01:35:47;;;;;;;150.80;71.50;;;;;;;-4.12;100.00;100867.06;271997;1274;22449;-83
2024/01/30 01:43:23;;;;;;;138.00;66.30;;;;;;;-4.14;100.00;100863.38;272270;1275;22263;-83
2024/01/30 01:49:58;;;;;;;142.90;66.00;;;;;;;-4.15;100.00;100861.22;272516;1272;22239;-83
2024/01/30 01:57:11;;;;;;;134.50;64.90;;;;;;;-4.22;100.00;100867.05;273130;1266;22246;-82
2024/01/30 02:03:22;;;;;;;135.90;65.80;;;;;;;-4.26;100.00;100864.70;273553;1269;22461;-82
2024/01/30 02:09:46;;;;;;;146.70;70.30;;;;;;;-4.30;100.00;100862.86;273581;1269;22387;-84
2024/01/30 02:16:12;;;;;;;147.90;67.20;;;;;;;-4.35;100.00;100855.31;273392;1269;22374;-85
2024/01/30 02:23:16;;;;;;;145.50;67.60;;;;;;;-4.40;100.00;100853.31;273534;1269;23330;-82
2024/01/30 02:29:46;;;;;;;154.20;69.90;;;;;;;-4.47;100.00;100854.77;273315;1269;22429;-82
2024/01/30 02:36:24;;;;;;;144.20;67.00;;;;;;;-4.52;100.00;100849.62;272589;1260;96742;-83
2024/01/30 02:42:26;;;;;;;164.00;76.20;;;;;;;-4.53;100.00;100841.16;273674;1270;23508;-83
2024/01/30 02:48:28;;;;;;;145.80;67.00;;;;;;;-4.57;100.00;100838.00;273276;1269;23185;-83
2024/01/30 02:55:06;;;;;;;142.00;66.00;;;;;;;-4.59;100.00;100836.10;273635;1269;22306;-83
2024/01/30 03:01:08;;;;;;;140.10;65.40;;;;;;;-4.61;100.00;100823.55;273264;1268;22555;-83
2024/01/30 03:07:35;;;;;;;128.00;60.10;;;;;;;-4.66;100.00;100823.69;273306;1269;22471;-83
2024/01/30 03:14:04;;;;;;;126.00;59.40;;;;;;;-4.70;100.00;100820.87;273624;1269;22405;-82
2024/01/30 03:20:31;;;;;;;126.00;58.20;;;;;;;-4.70;100.00;100821.41;273810;1276;23480;-82
2024/01/30 03:26:34;;;;;;;130.20;58.90;;;;;;;-4.76;100.00;100821.22;273561;1263;22201;-82
2024/01/30 03:40:18;;;;;;;136.20;62.10;;;;;;;-4.82;100.00;100831.91;273860;1269;22182;-83
2024/01/30 03:47:07;;;;;;;148.70;66.50;;;;;;;-4.85;100.00;100829.54;273971;1272;22244;-83
2024/01/30 03:53:54;;;;;;;148.10;64.90;;;;;;;-4.90;100.00;100830.48;273971;1269;22202;-82
2024/01/30 04:01:07;;;;;;;134.30;61.30;;;;;;;-4.99;100.00;100825.98;272652;1275;22240;-82
2024/01/30 04:07:35;;;;;;;150.50;69.70;;;;;;;-5.02;100.00;100825.53;272637;1274;23027;-82
2024/01/30 04:21:43;;;;;;;140.10;62.30;;;;;;;-5.00;100.00;100832.58;269551;1274;22523;-82
2024/01/30 04:35:43;;;;;;;148.10;66.90;;;;;;;-5.01;100.00;100829.59;273697;1269;22266;-82
2024/01/30 04:42:27;;;;;;;143.80;64.80;;;;;;;-5.04;100.00;100835.10;272966;1269;22544;-82
2024/01/30 04:49:15;;;;;;;172.80;81.50;;;;;;;-5.06;100.00;100835.95;269969;1269;22545;-82
2024/01/30 04:55:58;;;;;;;158.80;71.10;;;;;;;-5.09;100.00;100833.59;270971;1269;22553;-82
2024/01/30 05:02:41;;;;;;;160.40;74.30;;;;;;;-5.15;100.00;100836.95;270168;1269;22502;-82
2024/01/30 05:08:47;;;;;;;186.00;87.60;;;;;;;-5.19;100.00;100834.89;270570;1269;22558;-82
2024/01/30 05:14:53;;;;;;;158.50;75.20;;;;;;;-5.22;100.00;100839.24;271999;1263;22330;-82
2024/01/30 05:20:55;;;;;;;168.50;76.20;;;;;;;-5.26;100.00;100838.11;273263;1257;23592;-82
2024/01/30 05:27:39;;;;;;;175.70;78.70;;;;;;;-5.28;100.00;100834.92;273361;1269;23556;-82
2024/01/30 05:33:41;;;;;;;168.60;76.60;;;;;;;-5.30;100.00;100835.88;273103;1269;101150;-82
2024/01/30 05:39:43;;;;;;;158.80;70.30;;;;;;;-5.32;100.00;100831.78;273400;1266;23037;-82
2024/01/30 05:46:11;;;;;;;158.50;73.20;;;;;;;-5.36;100.00;100828.35;273561;1269;23501;-82
2024/01/30 05:52:13;;;;;;;171.30;79.00;;;;;;;-5.41;100.00;100834.52;271557;1269;24496;-82
2024/01/30 05:58:15;;;;;;;179.90;81.00;;;;;;;-5.44;100.00;100842.55;273276;1269;22413;-82
2024/01/30 06:04:37;;;;;;;179.60;82.70;;;;;;;-5.46;100.00;100852.52;271942;1269;22575;-82
2024/01/30 06:10:47;;;;;;;180.50;79.60;;;;;;;-5.49;100.00;100847.23;271374;1269;22547;-82
2024/01/30 06:17:11;;;;;;;163.60;75.90;;;;;;;-5.51;100.00;100845.13;273229;1269;22220;-82
2024/01/30 06:23:14;;;;;;;171.50;76.30;;;;;;;-5.52;100.00;100845.13;273052;1269;23410;-82
2024/01/30 06:30:29;;;;;;;171.60;82.10;;;;;;;-5.49;100.00;100843.58;272038;1269;22276;-82
2024/01/30 06:37:13;;;;;;;175.10;76.30;;;;;;;-5.53;100.00;100842.67;273668;1269;22234;-81
2024/01/30 06:43:16;;;;;;;186.80;84.50;;;;;;;-5.52;100.00;100841.42;273936;1276;23762;-82
2024/01/30 06:49:38;;;;;;;181.40;82.30;;;;;;;-5.47;100.00;100835.73;273524;1271;22171;-81
2024/01/30 06:55:40;;;;;;;170.20;74.40;;;;;;;-5.43;100.00;100836.92;273264;1269;26361;-82
2024/01/30 07:02:25;;;;;;;176.50;78.80;;;;;;;-5.34;100.00;100844.31;273335;1272;22202;-81
2024/01/30 07:09:08;;;;;;;169.80;80.00;;;;;;;-5.21;100.00;100842.11;272655;1269;23335;-82
2024/01/30 07:15:11;;;;;;;170.70;78.70;;;;;;;-5.09;100.00;100840.45;270746;1269;23950;-81
2024/01/30 07:21:17;;;;;;;165.70;80.10;;;;;;;-4.91;100.00;100840.94;272456;1269;22403;-81
2024/01/30 07:27:43;;;;;;;188.60;84.20;;;;;;;-4.65;100.00;100841.20;273646;1269;22194;-81
2024/01/30 07:34:31;;;;;;;204.20;95.20;;;;;;;-4.29;100.00;100842.83;273411;1269;22417;-82
2024/01/30 07:41:06;;;;;;;251.30;120.60;;;;;;;-3.74;100.00;100848.46;273997;1276;23941;-82
2024/01/30 07:47:30;;;;;;;297.60;137.10;;;;;;;-3.14;100.00;100852.08;273427;1269;22236;-82
2024/01/30 07:54:13;;;;;;;321.90;149.60;;;;;;;-2.55;100.00;100845.94;273794;1271;23237;-83
2024/01/30 08:00:35;;;;;;;336.90;156.80;;;;;;;-1.93;100.00;100839.08;273566;1269;25268;-83
2024/01/30 08:07:30;;;;;;;365.10;170.30;;;;;;;-1.35;100.00;100830.34;271112;1269;22315;-83
2024/01/30 08:13:57;;;;;;;370.40;170.00;;;;;;;-0.74;100.00;100829.52;273992;1269;22320;-83
2024/01/30 08:20:04;;;;;;;400.60;201.10;;;;;;;-0.17;100.00;100832.46;273860;1276;22183;-83
2024/01/30 08:26:15;;;;;;;399.70;196.90;;;;;;;0.54;100.00;100836.67;273285;1269;22556;-83
2024/01/30 08:32:16;;;;;;;411.20;201.90;;;;;;;0.97;100.00;100841.75;270391;1269;23917;-83
2024/01/30 08:39:09;;;;;;;417.80;213.50;;;;;;;1.53;100.00;100837.17;273304;1271;22190;-83
2024/01/30 08:45:55;;;;;;;;;;;;;;;2.01;100.00;100835.97;273752;1273;22459;-83
2024/01/30 08:52:51;;;;;;;427.30;231.60;;;;;;;2.58;100.00;100831.64;270651;1269;23219;-82
2024/01/30 08:59:13;;;;;;;420.40;221.80;;;;;;;3.04;100.00;100832.23;272330;1269;23493;-83
2024/01/30 09:05:37;;;;;;;340.00;191.20;;;;;;;3.52;100.00;100831.91;270423;1269;22635;-83
2024/01/30 09:19:52;;;;;;;350.50;208.20;;;;;;;5.00;100.00;100831.34;273515;1269;22266;-83
2024/01/30 09:27:08;;;;;;;326.10;194.00;;;;;;;5.77;100.00;100827.27;273492;1274;22368;-83
2024/01/30 09:34:06;;;;;;;271.50;163.30;;;;;;;6.39;100.00;100820.16;273383;1270;22332;-83
2024/01/30 09:41:27;;;;;;;175.30;103.90;;;;;;;6.40;100.00;100816.78;273775;1272;23342;-83
2024/01/30 09:47:42;;;;;;;156.50;89.00;;;;;;;6.57;100.00;100808.55;273824;1269;22284;-83
2024/01/30 09:55:10;;;;;;;135.10;76.30;;;;;;;7.19;100.00;100800.45;274038;1276;22167;-83
2024/01/30 10:02:04;;;;;;;92.20;56.60;;;;;;;7.88;100.00;100792.48;273557;1276;22414;-83
2024/01/30 10:08:30;;;;;;;80.80;44.20;;;;;;;8.50;100.00;100786.60;273254;1270;23093;-83
2024/01/30 10:15:19;;;;;;;54.30;33.70;;;;;;;8.78;100.00;100785.25;273695;1257;23445;-83
2024/01/30 10:21:36;;;;;;;43.40;26.40;;;;;;;9.15;100.00;100780.70;273898;1270;22408;-84
2024/01/30 10:43:22;;;;;;;42.90;25.20;;;;;;;9.84;97.13;100760.58;273724;1276;22450;-84
2024/01/30 10:49:24;;;;;;;44.20;24.00;;;;;;;9.87;96.05;100749.97;273319;1271;22221;-85
2024/01/30 10:55:28;;;;;;;37.70;22.30;;;;;;;9.87;94.70;100743.05;272125;1270;22446;-85
2024/01/30 11:02:20;;;;;;;38.00;23.60;;;;;;;9.67;93.47;100743.52;273071;1270;24761;-85
2024/01/30 11:09:18;;;;;;;53.50;28.30;;;;;;;9.50;94.84;100733.44;272974;1270;22989;-85
2024/01/30 11:38:07;;;;;;;75.00;40.30;;;;;;;8.51;92.21;100700.52;271703;1280;23093;-86
2024/01/30 11:45:19;;;;;;;72.00;39.40;;;;;;;8.35;91.92;100697.02;271768;1268;22318;-86
2024/01/30 11:53:07;;;;;;;67.90;38.60;;;;;;;8.02;92.26;100688.84;271685;1279;23117;-86
2024/01/30 12:00:43;;;;;;;67.80;36.50;;;;;;;7.82;92.54;100682.38;271618;1279;22262;-87
2024/01/30 12:07:36;;;;;;;70.70;39.50;;;;;;;7.70;92.71;100680.38;271797;1279;23097;-86
2024/01/30 12:14:48;;;;;;;65.90;39.10;;;;;;;7.52;92.88;100679.02;273616;1276;22681;-87
2024/01/30 12:36:21;;;;;;;71.40;42.20;;;;;;;7.14;92.55;100654.67;273429;1268;22910;-87
2024/01/30 12:43:16;;;;;;;69.70;38.60;;;;;;;7.06;91.70;100649.66;273432;1271;23140;-87
2024/01/30 12:49:29;;;;;;;72.30;42.00;;;;;;;7.06;92.08;100650.46;273336;1272;22209;-87
2024/01/30 12:56:14;;;;;;;65.10;36.60;;;;;;;7.13;93.24;100647.94;273478;1273;22201;-87
2024/01/30 13:02:55;;;;;;;64.60;35.90;;;;;;;7.27;92.66;100643.70;273785;1269;22258;-86
2024/01/30 13:09:48;;;;;;;78.40;41.90;;;;;;;7.30;91.87;100642.45;273270;1269;22185;-87
2024/01/30 13:23:58;;;;;;;92.70;50.40;;;;;;;7.19;92.79;100630.35;273734;1269;22165;-87
2024/01/30 13:31:05;;;;;;;88.60;48.70;;;;;;;7.06;94.31;100622.76;272672;1269;22674;-87
2024/01/30 13:38:08;;;;;;;94.20;50.60;;;;;;;6.95;92.22;100621.25;270202;1269;23596;-88
2024/01/30 13:44:12;;;;;;;98.30;52.40;;;;;;;6.84;92.92;100615.71;272346;1269;23437;-88
2024/01/30 13:50:16;;;;;;;92.30;48.80;;;;;;;6.81;92.34;100619.44;272791;1269;22201;-88
2024/01/30 13:56:38;;;;;;;81.60;45.10;;;;;;;6.71;90.87;100621.90;273711;1266;22205;-89
2024/01/30 14:03:44;;;;;;;82.60;45.00;;;;;;;6.61;90.62;100621.29;273766;1276;22345;-88
2024/01/30 14:11:36;;;;;;;86.90;48.00;;;;;;;6.49;91.33;100618.12;273809;1276;22228;-88
2024/01/30 14:18:35;;;;;;;81.10;43.90;;;;;;;6.34;91.36;100615.35;273928;1269;22191;-89
2024/01/30 14:24:58;;;;;;;81.30;44.60;;;;;;;6.19;91.62;100615.54;273032;1272;22250;-88
2024/01/30 14:31:42;;;;;;;73.10;41.00;;;;;;;6.05;91.94;100608.95;273031;1273;22229;-89
2024/01/30 14:38:28;;;;;;;78.70;39.50;;;;;;;5.91;92.27;100606.22;273024;1272;22238;-88
2024/01/30 14:45:53;;;;;;;78.60;39.70;;;;;;;5.80;92.71;100603.77;273082;1272;23753;-89
2024/01/30 14:52:59;;;;;;;75.10;40.90;;;;;;;5.64;92.92;100602.11;273361;1273;22229;-88
2024/01/30 15:00:44;;;;;;;75.10;42.00;;;;;;;5.36;92.91;100598.92;273281;1269;22496;-88
2024/01/30 15:07:10;;;;;;;83.40;42.60;;;;;;;5.04;93.37;100599.38;270947;1269;22257;-89
2024/01/30 15:13:30;;;;;;;83.90;45.60;;;;;;;4.77;93.67;100597.96;273208;1269;24201;-88
2024/01/30 15:19:32;;;;;;;79.80;42.90;;;;;;;4.50;93.84;100600.45;273584;1269;23077;-87
2024/01/30 15:25:48;;;;;;;80.80;44.10;;;;;;;4.20;94.01;100607.27;273258;1269;22306;-88
2024/01/30 15:33:02;;;;;;;84.70;45.10;;;;;;;3.90;94.40;100605.85;273544;1271;22247;-88
2024/01/30 15:39:06;;;;;;;82.80;42.10;;;;;;;3.55;94.54;100605.52;273263;1272;22604;-88
2024/01/30 15:45:08;;;;;;;86.20;45.00;;;;;;;3.22;94.99;100601.05;270750;1269;26211;-89
2024/01/30 15:51:13;;;;;;;97.80;48.40;;;;;;;2.85;95.52;100594.93;270696;1269;22308;-88
2024/01/30 15:57:36;;;;;;;109.50;52.80;;;;;;;2.61;96.16;100600.08;272629;1269;22201;-87
2024/01/30 16:04:08;;;;;;;124.90;60.50;;;;;;;2.40;96.63;100590.90;273251;1272;22362;-87
2024/01/30 16:10:36;;;;;;;118.30;55.70;;;;;;;2.17;96.75;100585.90;273388;1269;23253;-87
2024/01/30 16:16:43;;;;;;;120.90;58.70;;;;;;;1.95;97.28;100580.06;273375;1271;23197;-88
2024/01/30 16:22:45;;;;;;;115.90;55.30;;;;;;;1.71;97.47;100575.99;272039;1269;22229;-88
2024/01/30 16:29:36;;;;;;;115.10;52.90;;;;;;;1.51;97.58;100575.77;273634;1269;22925;-87
2024/01/30 16:36:35;;;;;;;139.00;67.90;;;;;;;1.30;97.58;100581.10;273494;1271;23351;-86
2024/01/30 16:42:38;;;;;;;125.70;59.60;;;;;;;1.08;98.06;100579.23;273526;1269;22408;-87
2024/01/30 16:48:49;;;;;;;119.40;60.40;;;;;;;0.88;98.21;100581.02;272937;1269;22208;-87
2024/01/30 16:55:25;;;;;;;122.20;58.80;;;;;;;0.65;98.38;100582.34;272816;1269;22245;-86
2024/01/30 17:02:10;;;;;;;124.20;57.80;;;;;;;0.45;98.81;100584.63;271105;1268;22562;-85
2024/01/30 17:08:45;;;;;;;104.30;51.10;;;;;;;0.24;99.31;100584.85;273530;1272;22218;-85
2024/01/30 17:15:28;;;;;;;105.30;50.90;;;;;;;0.06;99.45;100588.48;273777;1269;22205;-87
2024/01/30 17:22:39;;;;;;;146.60;62.80;;;;;;;-0.07;99.86;100580.35;271909;1270;23017;-87
2024/01/30 17:37:47;;;;;;;127.40;59.20;;;;;;;-0.36;100.00;100577.10;265929;1276;23549;-87
2024/01/30 17:44:49;;;;;;;156.70;67.50;;;;;;;-0.57;100.00;100574.02;273896;1257;23157;-86
2024/01/30 17:52:05;;;;;;;136.20;58.40;;;;;;;-0.76;100.00;100571.86;272394;1281;22221;-86
2024/01/30 17:58:13;;;;;;;136.10;59.70;;;;;;;-0.87;100.00;100572.40;270164;1269;22953;-87
2024/01/30 18:04:41;;;;;;;134.80;62.40;;;;;;;-0.94;100.00;100570.21;273555;1265;23179;-86
2024/01/30 18:11:30;;;;;;;122.70;57.10;;;;;;;-1.01;100.00;100569.76;273764;1271;22306;-87
2024/01/30 18:17:54;;;;;;;109.40;51.30;;;;;;;-1.09;100.00;100565.61;272560;1269;23244;-88
2024/01/30 18:25:11;;;;;;;108.00;52.70;;;;;;;-1.19;100.00;100572.61;273685;1270;23253;-88
2024/01/30 18:32:07;;;;;;;123.60;56.30;;;;;;;-1.30;100.00;100571.27;273891;1269;22813;-88
2024/01/30 18:47:29;;;;;;;;;;;;;;;-1.56;100.00;100575.80;272388;1263;22465;-88
2024/01/30 18:55:28;;;;;;;173.10;76.10;;;;;;;-1.61;100.00;100569.64;272729;1270;23754;-88
2024/01/30 19:03:14;;;;;;;156.00;73.40;;;;;;;-1.68;100.00;100570.66;272705;1273;22247;-88
2024/01/30 19:10:56;;;;;;;145.00;70.90;;;;;;;-1.81;100.00;100572.38;271758;1281;22515;-88
2024/01/30 19:19:04;;;;;;;;;;;;;;;;;;;;;
2024/01/30 19:26:45;;;;;;;;;;;;;;;;;;;;;
2024/01/30 19:34:04;;;;;;;182.30;86.70;;;;;;;-2.01;100.00;100577.20;273144;1270;22357;-89
2024/01/30 19:41:59;;;;;;;172.70;78.10;;;;;;;-2.00;100.00;100574.73;273689;1272;22350;-88
2024/01/30 19:49:39;;;;;;;172.00;79.30;;;;;;;-2.14;100.00;100576.39;272658;1269;23308;-88
2024/01/30 19:57:08;;;;;;;177.60;76.70;;;;;;;-2.24;100.00;100577.55;273729;1276;23040;-89
2024/01/30 20:12:09;;;;;;;162.60;78.30;;;;;;;-2.33;100.00;100584.65;270772;1268;22562;-88
2024/01/30 20:19:35;;;;;;;182.60;90.30;;;;;;;-2.42;100.00;100588.69;271201;1269;22620;-87
2024/01/30 20:26:17;;;;;;;203.50;98.70;;;;;;;-2.49;100.00;100586.13;273537;1272;23475;-88
2024/01/30 20:32:45;;;;;;;193.50;92.80;;;;;;;-2.55;100.00;100585.00;273168;1269;23604;-88
2024/01/30 20:39:54;;;;;;;200.60;98.80;;;;;;;-2.61;100.00;100584.07;273432;1268;22167;-88
2024/01/30 20:54:51;;;;;;;206.40;100.00;;;;;;;-2.78;100.00;100583.70;271164;1282;22254;-88
2024/01/30 21:02:56;;;;;;;213.10;103.20;;;;;;;-2.82;100.00;100582.31;272034;1276;22460;-88
2024/01/30 21:09:19;;;;;;;199.80;95.50;;;;;;;-2.85;100.00;100579.48;272746;1269;23010;-88
2024/01/30 21:16:56;;;;;;;212.10;105.30;;;;;;;-2.95;100.00;100576.03;272569;1276;22556;-87
2024/01/30 21:22:58;;;;;;;234.80;113.20;;;;;;;-2.98;100.00;100570.65;272034;1274;24190;-88
2024/01/30 21:29:23;;;;;;;207.10;99.20;;;;;;;-2.98;100.00;100562.66;273003;1272;22941;-87
2024/01/30 21:36:15;;;;;;;218.50;110.20;;;;;;;-3.01;100.00;100558.66;273791;1270;23172;-86
2024/01/30 21:42:38;;;;;;;195.70;91.90;;;;;;;-3.03;100.00;100561.20;272104;1269;22543;-88
2024/01/30 21:48:54;;;;;;;175.90;84.10;;;;;;;-3.09;100.00;100556.36;270098;1269;22570;-87
2024/01/30 21:55:19;;;;;;;171.10;86.50;;;;;;;-3.16;100.00;100556.58;270564;1269;22644;-87
2024/01/30 22:02:27;;;;;;;161.30;77.90;;;;;;;-3.23;100.00;100560.20;270453;1269;23350;-87
2024/01/30 22:48:34;;;;;;;130.00;60.70;;;;;;;-3.50;100.00;100575.88;273942;1277;22253;-87
2024/01/30 22:54:37;;;;;;;147.60;65.70;;;;;;;-3.52;100.00;100579.16;273638;1269;22214;-87
2024/01/30 23:10:12;;;;;;;132.20;63.80;;;;;;;-3.60;100.00;100578.71;272627;1282;22239;-87
2024/01/30 23:18:06;;;;;;;140.30;66.30;;;;;;;-3.64;100.00;100577.79;272099;1285;22232;-87
2024/01/30 23:24:54;;;;;;;111.00;49.20;;;;;;;-3.71;100.00;100574.26;272689;1273;22339;-87
2024/01/30 23:32:21;;;;;;;114.30;54.00;;;;;;;-3.78;100.00;100572.17;269903;1279;22279;-87
2024/01/30 23:47:19;;;;;;;119.80;58.00;;;;;;;-3.84;100.00;100576.73;270753;1284;22537;-87
